Samarkand, Uzbekistan
Current Conditions -  °F | °C
As of 2:30 PM on Thursday 27 Nov 2014 (Local Time) from UTSS Reporting Station
Haze Haze  
Wind Chill: 24°   Ceiling: 300
Heat Index: 30°   Visibility: 1.8mi
Dew Point: 28°   Wind: 6mph
Humidity: 93%   Direction: 340°NNW
Pressure: 30.24"   Gusts: NA
Location:  39.66°N, 66.95°E
Report Text: UTSS 270930Z 34005KT 3000 BR OVC003 M01/M02 Q1024 R88/29//50NOSIG RMK BASE360
Loading
Personal Weather Stations






























Interactive Weather Map New forecast layout! Learn more

10-Day Weather Forecast

Advertisements
Track Severe Weather on mobile